Airfield :
LOGIN :

Register | Disclaimer

   EN    FR    IT 

 










Legend :    VFR   Marginal VFR   IFR   Intensive IFR   Very Intensive IFR
Visi :
Ceiling :
>= 8 km
>= 3000ft
5 to 8 km
1000 to 3000 ft
1500m to 5 km
500 to 1000 ft
800 to 1500m
200 to 500 ft
< 800m
< 200 ft
Symbols :   Thunderstorms  Fog  Heavy snow  Heavy precipitations  Wind > 20 kt
SIGMETs :     Misc.  Thunderstorms  Icing  Turbulence  Mountain Waves  Volcanic Ashes







- Airport Elevation : 14 ft
- IATA code : BRE


EDDW - Bremen Neuenland

CURRENT METAR :
  • 171250Z 13007KT CAVOK 13/05 Q1021 NOSIG

EXPIRED METARs :
  • 171220Z 13004KT 100V160 CAVOK 13/05 Q1021 NOSIG
  • 171150Z 13005KT 090V160 CAVOK 12/04 Q1021 NOSIG
  • 171120Z 13004KT 090V170 CAVOK 12/04 Q1022 NOSIG
  • 171050Z 15005KT 120V180 CAVOK 11/03 Q1022 NOSIG
  • 171020Z 14004KT 110V170 CAVOK 10/03 Q1022 NOSIG

TAF TAF EDDW
Valid from the 17 at 12:00 until the 18 at 12:00 UTC


171100Z 1712/1812 16005KT CAVOK
No reported NOTAMs for that airfield.



MET'MAP, your aeronautical weather chart ! - Copyright ORBIFLY December 2007 - Disclaimer

ORBIFLY MET'MAP TEAM :

Programming & Development : Alexandra Zaïnal
Concept & Development : Baudouin d'Aumeries
Co-Development & Prog : Marc-Olivier Méhu
Technical & hardware support : Manuel Goepfert

Contact : metmap@orbifly.com




SOURCES & CREDITS :

   NOAA